createdAt,value
2023-04-27T00:02:49.220Z,5.70
2023-04-27T00:06:32.566Z,6.70
2023-04-27T00:10:14.367Z,6.03
2023-04-27T00:13:56.634Z,5.85
2023-04-27T00:17:38.462Z,6.47
2023-04-27T00:21:20.587Z,6.18
2023-04-27T00:25:02.335Z,5.75
2023-04-27T00:28:44.070Z,5.97
2023-04-27T00:32:25.984Z,5.90
2023-04-27T00:36:08.348Z,5.10
2023-04-27T00:39:50.148Z,5.50
2023-04-27T00:43:32.574Z,5.88
2023-04-27T00:47:15.793Z,6.50
2023-04-27T00:50:57.610Z,5.70
2023-04-27T00:54:39.435Z,5.57
2023-04-27T00:58:21.183Z,5.30
2023-04-27T01:02:03.347Z,5.05
2023-04-27T01:05:45.097Z,5.72
2023-04-27T01:09:26.810Z,5.85
2023-04-27T01:13:09.781Z,6.05
2023-04-27T01:16:52.443Z,5.77
2023-04-27T01:20:34.236Z,6.15
2023-04-27T01:24:16.727Z,5.95
2023-04-27T01:27:58.451Z,5.80
2023-04-27T01:31:40.331Z,5.97
2023-04-27T01:35:22.174Z,5.78
2023-04-27T01:39:04.462Z,6.05
2023-04-27T01:42:46.224Z,6.82
2023-04-27T01:46:28.021Z,6.45
2023-04-27T01:50:10.055Z,6.18
2023-04-27T01:53:51.752Z,6.30
2023-04-27T01:57:33.564Z,6.50
2023-04-27T02:01:15.345Z,6.30
2023-04-27T02:04:57.195Z,6.82
2023-04-27T02:08:38.923Z,7.00
2023-04-27T02:12:20.764Z,6.50
2023-04-27T02:16:04.317Z,6.82
2023-04-27T02:19:46.220Z,6.97
2023-04-27T02:23:27.947Z,7.13
2023-04-27T02:27:10.073Z,7.70
2023-04-27T02:30:52.253Z,6.90
2023-04-27T02:34:34.013Z,7.05
2023-04-27T02:38:15.846Z,7.63
2023-04-27T02:41:57.593Z,7.00
2023-04-27T02:45:39.292Z,7.65
2023-04-27T02:49:21.007Z,6.47
2023-04-27T02:53:02.817Z,7.45
2023-04-27T02:56:44.537Z,7.35
2023-04-27T03:00:26.957Z,6.63
2023-04-27T03:04:08.971Z,7.43
2023-04-27T03:07:50.913Z,6.47
2023-04-27T03:11:32.955Z,7.55
2023-04-27T03:15:14.647Z,8.00
2023-04-27T03:18:56.483Z,7.97
2023-04-27T03:22:49.644Z,6.70
2023-04-27T03:26:31.597Z,7.78
2023-04-27T03:30:13.673Z,7.95
2023-04-27T03:33:55.631Z,6.93
2023-04-27T03:37:37.327Z,8.32
2023-04-27T03:41:19.038Z,7.13
2023-04-27T03:45:00.727Z,6.85
2023-04-27T03:48:43.928Z,8.13
2023-04-27T03:52:26.404Z,7.32
2023-04-27T03:56:08.104Z,8.20
2023-04-27T03:59:49.916Z,7.90
2023-04-27T04:03:31.982Z,7.80
2023-04-27T04:07:13.836Z,8.48
2023-04-27T04:10:56.899Z,7.43
2023-04-27T04:14:38.641Z,9.45
2023-04-27T04:18:20.554Z,8.80
2023-04-27T04:22:02.240Z,8.90
2023-04-27T04:25:47.996Z,8.73
2023-04-27T04:29:29.720Z,8.50
2023-04-27T04:33:11.869Z,8.95
2023-04-27T04:36:54.264Z,7.95
2023-04-27T04:40:37.911Z,8.33
2023-04-27T04:44:20.797Z,8.63
2023-04-27T04:48:02.774Z,9.60
2023-04-27T04:51:45.641Z,9.68
2023-04-27T04:55:30.274Z,11.40
2023-04-27T04:59:12.228Z,9.40
2023-04-27T05:02:54.210Z,9.75
2023-04-27T05:06:36.087Z,9.27
2023-04-27T05:10:17.930Z,9.77
2023-04-27T05:13:59.622Z,12.13
2023-04-27T05:17:41.319Z,9.77
2023-04-27T05:21:23.125Z,10.00
2023-04-27T05:25:05.318Z,9.55
2023-04-27T05:28:47.301Z,10.88
2023-04-27T05:32:28.993Z,9.77
2023-04-27T05:36:10.974Z,9.95
2023-04-27T05:39:52.779Z,10.00
2023-04-27T05:43:35.744Z,11.18
2023-04-27T05:47:17.603Z,10.43
2023-04-27T05:51:01.714Z,11.10
2023-04-27T05:54:47.944Z,10.85
2023-04-27T05:58:29.807Z,11.45
2023-04-27T06:02:11.790Z,10.70
2023-04-27T06:05:58.862Z,11.85
2023-04-27T06:09:41.738Z,10.85
2023-04-27T06:13:23.548Z,11.80
2023-04-27T06:17:05.768Z,12.38
2023-04-27T06:20:47.525Z,12.75
2023-04-27T06:24:29.321Z,12.60
2023-04-27T06:28:11.272Z,10.93
2023-04-27T06:31:53.019Z,10.88
2023-04-27T06:35:34.823Z,11.30
2023-04-27T06:39:16.685Z,11.48
2023-04-27T06:42:58.590Z,11.90
2023-04-27T06:46:40.542Z,12.82
2023-04-27T06:50:22.331Z,12.00
2023-04-27T06:54:04.398Z,12.10
2023-04-27T06:57:46.350Z,11.43
2023-04-27T07:01:28.094Z,11.52
2023-04-27T07:05:09.983Z,12.10
2023-04-27T07:08:51.978Z,11.95
2023-04-27T07:12:33.777Z,11.85
2023-04-27T07:16:16.341Z,11.45
2023-04-27T07:19:58.216Z,12.35
2023-04-27T07:23:41.560Z,10.73
2023-04-27T07:27:23.639Z,13.20
2023-04-27T07:31:06.778Z,11.77
2023-04-27T07:34:53.366Z,11.77
2023-04-27T07:38:38.406Z,12.43
2023-04-27T07:42:22.515Z,12.40
2023-04-27T07:46:04.532Z,12.52
2023-04-27T07:49:47.128Z,11.60
2023-04-27T07:53:28.992Z,11.50
2023-04-27T07:57:14.303Z,10.45
2023-04-27T08:00:56.116Z,11.48
2023-04-27T08:04:38.173Z,11.52
2023-04-27T08:08:20.524Z,10.83
2023-04-27T08:12:02.901Z,12.57
2023-04-27T08:15:44.660Z,12.15
2023-04-27T08:19:26.413Z,11.85
2023-04-27T08:23:08.134Z,11.48
2023-04-27T08:26:49.908Z,10.52
2023-04-27T08:30:31.725Z,10.70
2023-04-27T08:34:13.616Z,11.10
2023-04-27T08:37:55.352Z,10.82
2023-04-27T08:41:42.060Z,11.23
2023-04-27T08:45:25.374Z,10.57
2023-04-27T08:49:07.901Z,14.70
2023-04-27T08:52:51.044Z,16.25
2023-04-27T08:56:32.781Z,10.95
2023-04-27T09:00:15.408Z,11.25
2023-04-27T09:04:03.927Z,9.65
2023-04-27T09:08:08.178Z,10.30
2023-04-27T09:11:49.989Z,9.55
2023-04-27T09:15:47.129Z,10.02
2023-04-27T09:19:31.571Z,8.52
2023-04-27T09:27:21.170Z,9.68
2023-04-27T09:31:04.297Z,9.18
2023-04-27T09:34:46.119Z,7.97
2023-04-27T09:38:28.062Z,9.27
2023-04-27T09:42:11.286Z,9.38
2023-04-27T09:45:54.194Z,8.82
2023-04-27T09:49:36.364Z,8.75
2023-04-27T09:53:21.096Z,8.37
2023-04-27T09:57:23.389Z,8.57
2023-04-27T10:01:24.200Z,8.65
2023-04-27T10:05:51.110Z,9.38
2023-04-27T10:09:51.863Z,9.52
2023-04-27T10:13:33.653Z,8.85
2023-04-27T10:17:16.550Z,9.02
2023-04-27T10:21:10.586Z,7.15
2023-04-27T10:24:52.765Z,9.32
2023-04-27T10:28:40.095Z,9.27
2023-04-27T10:32:24.963Z,9.25
2023-04-27T10:36:15.593Z,9.05
2023-04-27T10:40:07.262Z,8.70
2023-04-27T10:43:48.977Z,8.50
2023-04-27T10:47:45.962Z,9.05
2023-04-27T10:51:28.660Z,9.95
2023-04-27T10:55:22.231Z,9.75
2023-04-27T10:59:05.434Z,9.18
2023-04-27T11:02:47.195Z,9.20
2023-04-27T11:06:39.225Z,9.75
2023-04-27T11:10:21.515Z,10.23
2023-04-27T11:14:03.747Z,9.27
2023-04-27T11:17:46.204Z,8.60
2023-04-27T11:21:28.521Z,10.55
2023-04-27T11:25:10.305Z,9.90
2023-04-27T11:28:59.846Z,9.20
2023-04-27T11:32:42.439Z,9.55
2023-04-27T11:36:25.044Z,9.27
2023-04-27T11:40:08.584Z,10.07
2023-04-27T11:43:51.232Z,9.45
2023-04-27T11:47:35.308Z,9.35
2023-04-27T11:51:17.076Z,9.10
2023-04-27T11:55:00.492Z,10.63
2023-04-27T11:58:44.388Z,9.75
2023-04-27T12:02:31.536Z,12.43
2023-04-27T12:06:31.621Z,10.18
2023-04-27T12:10:14.369Z,11.20
2023-04-27T12:13:56.824Z,10.47
2023-04-27T12:17:39.334Z,11.50
2023-04-27T12:21:21.352Z,11.93
2023-04-27T12:25:03.226Z,10.77
2023-04-27T12:28:44.979Z,12.25
2023-04-27T12:32:27.878Z,12.52
2023-04-27T12:36:09.739Z,13.13
2023-04-27T12:39:51.449Z,13.13
2023-04-27T12:43:33.202Z,11.57
2023-04-27T12:47:27.833Z,10.98
2023-04-27T12:51:16.675Z,11.65
2023-04-27T12:54:59.351Z,13.20
2023-04-27T12:58:41.707Z,15.43
2023-04-27T13:02:23.558Z,13.83
2023-04-27T13:06:08.729Z,14.15
2023-04-27T13:09:50.427Z,14.15
2023-04-27T13:13:32.204Z,13.52
2023-04-27T13:17:14.400Z,13.73
2023-04-27T13:20:56.290Z,12.82
2023-04-27T13:24:38.074Z,12.07
2023-04-27T13:28:20.031Z,14.27
2023-04-27T13:32:01.942Z,14.00
2023-04-27T13:35:43.670Z,12.20
2023-04-27T13:39:25.813Z,14.63
2023-04-27T13:43:07.723Z,14.25
2023-04-27T13:46:49.469Z,13.35
2023-04-27T13:50:31.397Z,13.45
2023-04-27T13:54:13.338Z,13.25
2023-04-27T13:57:55.368Z,12.70
2023-04-27T14:01:38.118Z,13.20
2023-04-27T14:05:19.952Z,12.65
2023-04-27T14:09:02.038Z,11.77
2023-04-27T14:12:43.847Z,11.77
2023-04-27T14:16:26.275Z,12.63
2023-04-27T14:20:08.678Z,11.02
2023-04-27T14:23:50.441Z,13.93
2023-04-27T14:27:32.194Z,11.63
2023-04-27T14:31:14.339Z,12.82
2023-04-27T14:34:56.084Z,11.63
2023-04-27T14:38:37.791Z,10.88
2023-04-27T14:42:19.495Z,10.70
2023-04-27T14:46:19.088Z,11.32
2023-04-27T14:50:02.310Z,10.80
2023-04-27T14:53:44.709Z,11.07
2023-04-27T14:57:26.931Z,12.60
2023-04-27T15:01:08.794Z,11.40
2023-04-27T15:04:51.144Z,12.02
2023-04-27T15:08:34.283Z,12.37
2023-04-27T15:12:16.235Z,12.10
2023-04-27T15:15:59.189Z,12.77
2023-04-27T15:19:41.178Z,14.00
2023-04-27T15:23:23.715Z,13.15
2023-04-27T15:27:06.736Z,13.18
2023-04-27T15:30:49.612Z,12.45
2023-04-27T15:34:31.843Z,11.95
2023-04-27T15:38:17.842Z,12.55
2023-04-27T15:41:59.814Z,10.90
2023-04-27T15:45:41.882Z,10.13
2023-04-27T15:49:23.635Z,10.05
2023-04-27T15:53:05.362Z,9.15
2023-04-27T15:56:47.089Z,8.90
2023-04-27T16:00:28.895Z,9.07
2023-04-27T16:04:10.885Z,9.35
2023-04-27T16:07:52.855Z,8.68
2023-04-27T16:11:34.580Z,6.88
2023-04-27T16:15:16.480Z,6.47
2023-04-27T16:18:58.714Z,7.07
2023-04-27T16:22:40.644Z,6.00
2023-04-27T16:26:26.619Z,7.35
2023-04-27T16:30:10.106Z,6.65
2023-04-27T16:33:51.905Z,5.88
2023-04-27T16:37:33.798Z,6.07
2023-04-27T16:41:15.553Z,6.80
2023-04-27T16:44:57.404Z,6.25
2023-04-27T16:48:39.102Z,6.47
2023-04-27T16:52:20.877Z,6.20
2023-04-27T16:56:03.311Z,6.65
2023-04-27T16:59:45.012Z,5.97
2023-04-27T17:03:26.888Z,5.93
2023-04-27T17:07:09.177Z,5.68
2023-04-27T17:10:50.904Z,6.32
2023-04-27T17:14:32.655Z,6.30
2023-04-27T17:18:14.388Z,5.00
2023-04-27T17:21:56.215Z,5.60
2023-04-27T17:25:37.976Z,5.22
2023-04-27T17:29:19.702Z,4.90
2023-04-27T17:33:02.211Z,3.75
2023-04-27T17:36:44.222Z,4.15
2023-04-27T17:40:26.009Z,4.35
2023-04-27T17:44:07.795Z,5.20
2023-04-27T17:47:50.402Z,6.05
2023-04-27T17:51:33.523Z,4.88
2023-04-27T17:55:15.389Z,4.55
2023-04-27T17:58:57.933Z,3.20
2023-04-27T18:02:39.834Z,3.15
2023-04-27T18:06:21.687Z,2.53
2023-04-27T18:10:07.158Z,3.05
2023-04-27T18:13:48.941Z,2.70
2023-04-27T18:17:30.923Z,3.60
2023-04-27T18:21:12.653Z,4.32
2023-04-27T18:24:54.353Z,3.63
2023-04-27T18:28:37.932Z,3.95
2023-04-27T18:32:19.637Z,4.10
2023-04-27T18:36:01.345Z,4.50
2023-04-27T18:39:46.978Z,3.58
2023-04-27T18:43:29.331Z,3.80
2023-04-27T18:47:13.672Z,3.70
2023-04-27T18:50:55.420Z,3.65
2023-04-27T18:54:38.153Z,5.53
2023-04-27T18:58:19.968Z,4.43
2023-04-27T19:02:01.745Z,2.42
2023-04-27T19:05:43.886Z,2.13
2023-04-27T19:09:25.656Z,2.35
2023-04-27T19:13:08.005Z,3.20
2023-04-27T19:16:50.383Z,2.57
2023-04-27T19:20:32.346Z,2.70
2023-04-27T19:24:14.290Z,3.13
2023-04-27T19:27:56.359Z,2.83
2023-04-27T19:31:38.560Z,2.70
2023-04-27T19:35:23.645Z,2.60
2023-04-27T19:39:05.420Z,3.22
2023-04-27T19:42:47.416Z,3.13
2023-04-27T19:46:30.441Z,3.13
2023-04-27T19:50:12.623Z,3.03
2023-04-27T19:53:54.336Z,3.30
2023-04-27T19:57:36.469Z,2.72
2023-04-27T20:01:18.244Z,2.35
2023-04-27T20:05:00.269Z,3.10
2023-04-27T20:08:42.182Z,2.30
2023-04-27T20:12:47.575Z,2.33
2023-04-27T20:16:28.457Z,2.10
2023-04-27T20:20:10.960Z,3.00
2023-04-27T20:23:52.687Z,2.10
2023-04-27T20:27:36.398Z,2.50
2023-04-27T20:31:18.244Z,2.22
2023-04-27T20:35:02.430Z,2.50
2023-04-27T20:38:44.390Z,2.00
2023-04-27T20:42:26.114Z,2.60
2023-04-27T20:46:10.594Z,2.80
2023-04-27T20:49:53.443Z,3.47
2023-04-27T20:53:35.252Z,3.03
2023-04-27T20:57:16.959Z,3.17
2023-04-27T21:00:59.114Z,3.47
2023-04-27T21:04:41.091Z,4.95
2023-04-27T21:08:22.899Z,4.35
2023-04-27T21:12:05.831Z,5.60
2023-04-27T21:15:47.568Z,6.72
2023-04-27T21:19:29.284Z,5.53
2023-04-27T21:23:13.202Z,6.30
2023-04-27T21:26:54.918Z,6.10
2023-04-27T21:30:36.764Z,6.05
2023-04-27T21:34:18.801Z,6.38
2023-04-27T21:38:00.528Z,5.85
2023-04-27T21:41:42.315Z,6.20
2023-04-27T21:45:24.062Z,6.53
2023-04-27T21:49:05.919Z,6.88
2023-04-27T21:52:47.613Z,5.95
2023-04-27T21:56:29.395Z,6.38
2023-04-27T22:00:14.626Z,7.75
2023-04-27T22:03:56.545Z,6.80
2023-04-27T22:07:38.671Z,6.90
2023-04-27T22:11:21.199Z,7.00
2023-04-27T22:15:03.502Z,8.82
2023-04-27T22:18:45.253Z,7.57
2023-04-27T22:22:27.022Z,7.38
2023-04-27T22:26:09.063Z,7.10
2023-04-27T22:29:51.233Z,6.47
2023-04-27T22:33:33.123Z,7.30
2023-04-27T22:37:14.835Z,6.63
2023-04-27T22:40:56.537Z,7.85
2023-04-27T22:44:38.581Z,7.30
2023-04-27T22:48:20.420Z,6.82
2023-04-27T22:52:02.220Z,7.28
2023-04-27T22:55:43.987Z,7.15
2023-04-27T22:59:25.899Z,7.57
2023-04-27T23:03:07.828Z,7.00
2023-04-27T23:06:49.673Z,6.93
2023-04-27T23:10:31.616Z,7.47
2023-04-27T23:14:14.236Z,6.60
2023-04-27T23:17:56.537Z,6.68
2023-04-27T23:21:38.524Z,6.32
2023-04-27T23:25:20.300Z,5.45
2023-04-27T23:29:02.497Z,5.40
2023-04-27T23:32:44.310Z,5.23
2023-04-27T23:36:26.439Z,5.13
2023-04-27T23:40:08.610Z,5.25
2023-04-27T23:43:50.285Z,5.80
2023-04-27T23:47:33.892Z,4.95
2023-04-27T23:51:16.309Z,4.47
2023-04-27T23:54:58.405Z,4.32
2023-04-27T23:58:40.089Z,4.18
